MST,Max TemperatureF,Mean TemperatureF,Min TemperatureF,Max Dew PointF,MeanDew PointF,Min DewpointF,Max Humidity, Mean Humidity, Min Humidity, Max Sea Level PressureIn, Mean Sea Level PressureIn, Min Sea Level PressureIn, Max VisibilityMiles, Mean VisibilityMiles, Min VisibilityMiles, Max Wind SpeedMPH, Mean Wind SpeedMPH, Max Gust SpeedMPH,PrecipitationIn, CloudCover, Events, WindDirDegrees
2012-10-1,100,82,64,41,33,25,42,21,7,29.96,29.90,29.85,20,11,7,16,4,,0.00,0,,116
2012-10-2,100,82,64,41,33,28,29,20,8,29.93,29.87,29.82,20,11,10,8,5,,0.00,0,,119
2012-10-3,98,81,64,43,34,30,40,21,9,29.98,29.92,29.86,20,11,10,9,7,,0.00,1,,121
2012-10-4,96,84,71,43,38,34,35,24,12,30.08,30.00,29.95,20,11,10,10,6,,0.00,1,,123
2012-10-5,93,80,66,43,37,32,38,26,12,30.05,29.96,29.90,20,11,10,10,5,,0.00,1,,112
2012-10-6,89,76,62,45,37,32,39,27,16,29.95,29.89,29.83,20,11,10,12,5,,0.00,2,,117
2012-10-7,93,80,66,45,39,34,38,28,13,29.93,29.87,29.84,20,11,10,9,5,,0.00,1,,128
2012-10-8,93,78,62,45,40,34,43,30,15,29.98,29.91,29.85,20,11,10,9,5,,0.00,0,,125
2012-10-9,91,78,64,48,43,37,46,33,17,29.99,29.92,29.86,20,11,10,8,5,,0.00,0,,133
2012-10-10,91,78,64,52,42,34,49,33,13,30.00,29.91,29.83,20,11,10,12,6,17,0.00,0,,126
2012-10-11,87,76,66,54,45,36,56,36,22,29.91,29.88,29.80,20,12,10,18,7,25,0.02,2,Rain-Thunderstorm,159
2012-10-12,73,66,57,50,41,34,59,40,25,30.10,30.03,29.91,20,11,10,14,6,18,0.00,1,Thunderstorm,229
2012-10-13,78,64,51,39,37,36,54,40,21,30.18,30.09,30.02,20,11,10,9,3,,0.00,0,,117
2012-10-14,91,73,55,41,37,32,55,35,13,30.11,30.03,29.94,20,11,10,8,5,,0.00,0,,104
2012-10-15,93,75,57,37,31,25,44,25,9,29.99,29.92,29.86,20,11,10,7,3,,0.00,0,,116
2012-10-16,89,73,57,37,32,27,44,26,12,29.92,29.85,29.78,20,12,10,8,6,,0.00,0,,111
2012-10-17,91,76,60,37,34,32,37,28,13,29.94,29.88,29.82,20,12,10,10,6,,0.00,1,,123
2012-10-18,86,74,62,57,40,32,50,33,24,30.08,29.99,29.95,20,12,10,9,6,,0.00,1,,97
2012-10-19,91,75,59,50,39,30,59,36,12,29.98,29.90,29.82,20,12,10,10,5,,0.00,0,,105
2012-10-20,87,74,60,39,34,28,42,27,12,29.88,29.82,29.77,20,10,4,9,6,,0.00,1,,125
2012-10-21,86,73,60,50,43,32,52,39,18,29.88,29.84,29.80,20,12,10,15,7,,0.00,0,,148
2012-10-22,84,72,60,55,48,45,68,47,27,30.00,29.89,29.87,20,12,10,16,4,30,0.00,0,,126
2012-10-23,80,70,59,55,46,43,59,46,28,29.94,29.88,29.82,20,12,10,7,4,,0.00,1,,122
2012-10-24,80,68,57,46,37,21,63,36,12,29.97,29.90,29.85,20,11,10,9,2,,0.00,0,,279
2012-10-25,80,65,50,32,25,14,47,29,8,30.05,29.98,29.92,20,12,10,9,5,,0.00,0,,129
2012-10-26,82,66,50,28,21,14,43,23,8,30.07,29.98,29.92,20,12,10,12,4,17,0.00,0,,36
2012-10-27,84,68,51,30,25,19,41,26,11,30.01,29.94,29.88,20,12,10,9,2,,0.00,0,,113
2012-10-28,86,68,51,32,27,21,41,26,11,30.03,29.98,29.93,20,12,10,7,4,,0.00,0,,112
2012-10-29,87,70,53,34,27,21,32,25,11,30.12,30.05,30.01,20,11,10,8,5,,0.00,0,,106
2012-10-30,86,70,53,39,29,23,38,28,11,30.09,30.02,29.96,20,12,10,8,6,,0.00,0,,112
2012-10-31,84,68,53,30,25,21,38,26,11,30.05,29.99,29.93,20,12,10,9,6,,0.00,1,,113